Friday, August 17, 2018, 10:52 PM EDT
Back to Local

KMDT, Harrisburg International Airport

Location: Middletown, PA, United States Lat: 40.2
Local Time: 10:52 PM EDT ( 2:52 GMT) Lon: -76.767
Time Zone: US/Eastern Elev: 308 ft

Show me the last for .
Show Decoded

2018-08-17 21:56 METAR KMDT 180156Z VRB03KT 10SM FEW060 SCT150 OVC220 23/22 A2995 RMK AO2 SLP140
                 T02330217 =
2018-08-17 20:56 METAR KMDT 180056Z 00000KT 9SM SCT038 SCT070 OVC150 23/22 A2995 RMK AO2 RAE26
                 SLP139 P0000 T02330222 =
2018-08-17 19:56 METAR KMDT 172356Z VRB04KT 9SM -RA SCT038 SCT070 OVC100 23/22 A2994 RMK AO2
                 RAE11B42 SLP139 P0000 60006 T02330217 10322 20233 55002 =
2018-08-17 18:56 METAR KMDT 172256Z 00000KT 10SM -RA FEW046 SCT070 OVC100 23/22 A2993 RMK AO2
                 TSE45 SLP133 TS MOVD E CB DSNT E MOV E P0006 T02330222 =
2018-08-17 18:51 METAR KMDT 172251Z 27003KT 8SM -RA FEW046 SCT070 OVC100 23/22 A2993 RMK AO2
                 TSE45 TS MOVD E CB DSNT E MOV E P0006 =
2018-08-17 18:07 METAR KMDT 172207Z 25010G18KT 3SM TSRA BKN040CB BKN048 OVC095 24/21 A2996 RMK
                 AO2 PRESRR FREQ LTGICCG OHD AND ALQDS TS OHD AND ALQDS MOV E P0005 T02440206 =
2018-08-17 18:03 METAR KMDT 172203Z 28012G27KT 1 3/4SM TSRA BKN040CB BKN048 OVC095 24/21 A2995
                 RMK AO2 FREQ LTGICCG OHD AND ALQDS TS OHD AND ALQDS MOV E P0005 T02440206 =
2018-08-17 17:56 METAR KMDT 172156Z 24015G36KT 4SM -TSRA BKN040CB BKN048 OVC095 26/21 A2995 RMK
                 AO2 PK WND 22036/2149 RAB51 TSB07 SLP139 FREQ LTGICCG OHD AND ALQDS TS OHD AND
                 ALQDS MOV E P0000 T02610206 =
2018-08-17 17:13 METAR KMDT 172113Z VRB05KT 10SM TS SCT040CB BKN095 OVC200 30/22 A2992 RMK AO2
                 TSB07 OCNL LTGICCG NW-N TS NW-N MOV NE VCSH W-N T03000217 =
2018-08-17 16:56 METAR KMDT 172056Z 00000KT 10SM SCT040 BKN095 OVC200 31/22 A2993 RMK AO2 SLP132
                 VCSH T03110217 56020 =
2018-08-17 15:56 METAR KMDT 171956Z 21007KT 170V240 10SM FEW040 BKN200 31/22 A2994 RMK AO2 SLP137
                 T03060217 =
2018-08-17 14:56 METAR KMDT 171856Z 23006KT 10SM FEW040 BKN200 31/22 A2996 RMK AO2 SLP144
                 T03110222 =
2018-08-17 13:56 METAR KMDT 171756Z 19005KT 10SM SCT100 BKN200 31/23 A2999 RMK AO2 SLP152
                 T03060233 10311 20233 58021 =
2018-08-17 12:56 METAR KMDT 171656Z 17003KT 9SM SCT100 BKN200 29/23 A3000 RMK AO2 SLP158
                 T02890233 =
2018-08-17 11:56 METAR KMDT 171556Z 17003KT 7SM BKN120 BKN200 29/23 A3003 RMK AO2 SLP168
                 T02890233 =
2018-08-17 10:56 METAR KMDT 171456Z 13006KT 5SM HZ FEW075 BKN120 BKN200 26/23 A3005 RMK AO2
                 SLP173 T02610228 58007 =
2018-08-17 09:56 METAR KMDT 171356Z 00000KT 5SM HZ BKN090 26/23 A3006 RMK AO2 SLP177 T02560228 =
2018-08-17 08:56 METAR KMDT 171256Z 13004KT 4SM BR BKN095 OVC110 24/22 A3006 RMK AO2 SLP178
                 T02390222 =
2018-08-17 07:56 METAR KMDT 171156Z 12005KT 4SM BR SCT085 BKN200 23/22 A3007 RMK AO2 SLP180
                 T02330217 10239 20222 50005 =
2018-08-17 06:56 METAR KMDT 171056Z 00000KT 4SM BR SCT085 BKN200 23/22 A3007 RMK AO2 SLP182
                 T02280217 =
2018-08-17 06:31 METAR KMDT 171031Z 00000KT 4SM BR SCT085 23/22 A3007 RMK AO2 T02280217 =
2018-08-17 06:27 METAR KMDT 171027Z 12003KT 2SM BR BKN085 23/22 A3006 RMK AO2 T02280217 =
2018-08-17 05:56 METAR KMDT 170956Z 13003KT 4SM BR SCT120 OVC200 23/22 A3006 RMK AO2 SLP178
                 T02280217 =
2018-08-17 04:56 METAR KMDT 170856Z 12006KT 5SM BR SCT120 OVC160 22/22 A3005 RMK AO2 SLP175
                 T02220217 58009 =
2018-08-17 03:56 METAR KMDT 170756Z 14003KT 5SM BR FEW090 SCT160 BKN200 23/21 A3007 RMK AO2
                 SLP180 T02280211 =
2018-08-17 02:56 METAR KMDT 170656Z 11005KT 5SM BR FEW090 BKN250 22/21 A3007 RMK AO2 SLP181
                 T02220211 =
2018-08-17 01:56 METAR KMDT 170556Z 00000KT 5SM BR SCT250 23/22 A3008 RMK AO2 SLP185 T02280217
                 10256 20222 58002 =
2018-08-17 00:56 METAR KMDT 170456Z 14003KT 6SM BR SCT250 22/22 A3009 RMK AO2 SLP188 T02220217
                 403220206 =
2018-08-16 23:56 METAR KMDT 170356Z 32003KT 6SM BR BKN250 23/22 A3009 RMK AO2 SLP188 T02280217 =
2018-08-16 22:56 METAR KMDT 170256Z 00000KT 7SM BKN250 23/22 A3009 RMK AO2 SLP187 T02330217 51009
                 =

Support USWX by starting your Amazon purchase here.